Time;durP1;ratioP1;P1;durP2;ratioP2;P2;SDS_P1;SDS_P2;PMS_P1;PMS_P2;Temp;Humidity;BMP_temperature;BMP_pressure;BME280_temperature;BME280_humidity;BME280_pressure;Samples;Min_cycle;Max_cycle;Signal;HPM_P1;HPM_P2
2023/07/17 04:22:32;;;;;;;27.02;24.12;;;;;;;22.45;100.00;100279.50;5560562;32;296739;-87
2023/07/17 04:25:39;;;;;;;26.98;24.25;;;;;;;22.49;100.00;100278.16;5549967;32;34156;-85
2023/07/17 04:28:42;;;;;;;26.65;22.77;;;;;;;22.60;100.00;100273.56;5549932;32;33494;-84
2023/07/17 04:31:45;;;;;;;25.75;22.62;;;;;;;22.73;100.00;100287.50;5550404;32;34850;-86
2023/07/17 04:34:48;;;;;;;23.23;20.95;;;;;;;22.86;100.00;100287.09;5551149;32;34053;-89
2023/07/17 04:37:54;;;;;;;25.60;21.25;;;;;;;23.01;100.00;100292.75;5551780;32;33502;-89
2023/07/17 04:40:57;;;;;;;24.25;20.98;;;;;;;23.25;100.00;100287.63;5549004;32;33967;-87
2023/07/17 04:44:00;;;;;;;22.33;20.15;;;;;;;23.43;100.00;100295.69;5548237;32;33853;-85
2023/07/17 04:47:03;;;;;;;26.92;20.37;;;;;;;23.53;100.00;100295.59;5548417;32;34581;-86
2023/07/17 04:50:07;;;;;;;22.92;19.30;;;;;;;23.65;100.00;100304.22;5547416;32;33854;-86
2023/07/17 04:53:10;;;;;;;21.50;19.40;;;;;;;23.75;100.00;100302.25;5548593;32;34075;-86
2023/07/17 04:56:13;;;;;;;20.70;18.55;;;;;;;23.83;100.00;100294.13;5546402;32;33696;-86
2023/07/17 04:59:16;;;;;;;20.95;17.95;;;;;;;23.92;100.00;100302.28;5547130;32;33641;-86
2023/07/17 05:02:19;;;;;;;19.20;17.20;;;;;;;24.17;100.00;100296.91;5547508;32;33868;-86
2023/07/17 05:05:22;;;;;;;18.73;16.73;;;;;;;24.47;100.00;100299.97;5547689;32;34603;-86
2023/07/17 05:08:26;;;;;;;19.45;17.45;;;;;;;24.62;100.00;100305.56;5547525;32;34673;-86
2023/07/17 05:11:29;;;;;;;18.55;16.42;;;;;;;24.79;100.00;100298.25;5548220;32;33750;-86
2023/07/17 05:14:32;;;;;;;16.98;15.30;;;;;;;24.94;100.00;100300.31;5547119;32;33678;-86
2023/07/17 05:17:36;;;;;;;20.20;16.35;;;;;;;25.11;100.00;100298.41;5547740;32;33747;-86
2023/07/17 05:20:43;;;;;;;17.62;15.82;;;;;;;25.36;100.00;100292.88;5546300;32;33902;-86
2023/07/17 05:23:46;;;;;;;17.48;15.60;;;;;;;25.58;100.00;100296.72;5546112;32;34007;-86
2023/07/17 05:26:50;;;;;;;16.55;14.85;;;;;;;25.75;100.00;100289.31;5546115;32;34200;-86
2023/07/17 05:29:53;;;;;;;17.02;15.35;;;;;;;25.93;100.00;100288.19;5546899;32;33852;-86
2023/07/17 05:32:56;;;;;;;19.75;15.02;;;;;;;26.17;100.00;100291.78;5537869;32;34669;-86
2023/07/17 05:35:59;;;;;;;18.33;14.68;;;;;;;26.85;100.00;100302.75;5533982;32;33960;-85
2023/07/17 05:39:02;;;;;;;16.52;13.88;;;;;;;28.19;98.57;100300.09;5533687;32;33820;-85
2023/07/17 05:42:06;;;;;;;16.62;12.57;;;;;;;29.78;88.71;100300.75;5545230;32;34183;-86
2023/07/17 05:45:09;;;;;;;13.98;12.23;;;;;;;31.24;83.10;100307.53;5545029;32;33845;-86
2023/07/17 05:48:12;;;;;;;13.98;11.75;;;;;;;32.65;76.13;100297.69;5532957;32;34223;-86
2023/07/17 05:51:15;;;;;;;14.93;12.55;;;;;;;33.73;70.76;100307.50;5531275;32;33618;-86
2023/07/17 05:54:18;;;;;;;17.12;12.32;;;;;;;32.78;68.02;100308.53;5536710;32;33819;-86
2023/07/17 05:57:23;;;;;;;14.82;11.60;;;;;;;32.42;70.73;100303.81;5540270;32;34293;-86
2023/07/17 06:00:26;;;;;;;15.25;11.30;;;;;;;32.73;72.50;100304.81;5530672;32;34244;-87
2023/07/17 06:03:29;;;;;;;11.00;9.90;;;;;;;33.09;69.75;100296.84;5531426;32;33963;-87
2023/07/17 06:06:32;;;;;;;11.20;10.20;;;;;;;33.58;63.55;100308.75;5529963;32;33752;-87
2023/07/17 06:09:35;;;;;;;14.70;10.48;;;;;;;34.54;59.27;100309.91;5530109;32;34866;-86
2023/07/17 06:12:38;;;;;;;11.85;9.63;;;;;;;34.94;58.81;100313.88;5530654;32;33949;-87
2023/07/17 06:15:41;;;;;;;14.38;10.25;;;;;;;34.20;57.25;100315.13;5530447;32;33447;-88
2023/07/17 06:18:44;;;;;;;15.00;9.70;;;;;;;34.50;56.92;100313.38;5530119;32;34546;-87
2023/07/17 06:21:47;;;;;;;12.85;10.70;;;;;;;34.57;56.24;100316.88;5529741;32;33379;-88
2023/07/17 06:24:49;;;;;;;9.60;8.80;;;;;;;35.17;52.92;100312.22;5530140;32;35077;-88
2023/07/17 06:27:52;;;;;;;10.68;9.68;;;;;;;35.04;53.73;100315.19;5529915;32;34567;-88
2023/07/17 06:30:55;;;;;;;10.85;8.80;;;;;;;35.73;50.28;100311.72;5529783;32;34664;-88
2023/07/17 06:33:58;;;;;;;10.88;9.55;;;;;;;36.55;47.89;100319.75;5529699;32;33881;-89
2023/07/17 06:37:01;;;;;;;10.32;9.30;;;;;;;36.88;45.77;100324.69;5529565;32;33749;-88
2023/07/17 06:40:05;;;;;;;19.50;9.40;;;;;;;35.37;50.39;100315.63;5530066;32;33440;-88
2023/07/17 06:43:08;;;;;;;12.37;9.10;;;;;;;34.74;50.74;100313.41;5529121;32;33829;-88
2023/07/17 06:46:11;;;;;;;9.80;8.80;;;;;;;34.02;53.13;100307.72;5530235;32;33831;-89
2023/07/17 06:49:14;;;;;;;12.45;9.77;;;;;;;33.42;51.95;100309.34;5531068;32;33895;-88
2023/07/17 06:52:17;;;;;;;9.93;8.95;;;;;;;32.63;54.71;100305.31;5530597;32;33933;-92
2023/07/17 06:55:20;;;;;;;15.10;9.40;;;;;;;32.10;53.67;100300.00;5530175;32;34638;-92
2023/07/17 06:58:24;;;;;;;10.50;8.82;;;;;;;31.63;55.74;100308.47;5531282;32;34623;-92
2023/07/17 07:01:26;;;;;;;11.85;8.50;;;;;;;31.74;52.16;100302.28;5541980;32;34161;-89
2023/07/17 07:04:29;;;;;;;9.82;8.60;;;;;;;32.16;53.31;100300.19;5539487;32;33390;-87
2023/07/17 07:07:32;;;;;;;9.73;8.80;;;;;;;32.38;52.49;100297.91;5530247;32;33846;-88
2023/07/17 07:10:35;;;;;;;10.45;8.88;;;;;;;32.17;50.40;100302.69;5531011;32;35156;-87
2023/07/17 07:13:38;;;;;;;11.43;8.60;;;;;;;31.72;52.60;100289.84;5542260;32;33837;-88
2023/07/17 07:16:41;;;;;;;9.70;8.70;;;;;;;31.68;51.97;100283.97;5548824;32;34721;-87
2023/07/17 07:19:44;;;;;;;12.23;8.20;;;;;;;31.72;52.40;100293.44;5528005;32;34048;-85
2023/07/17 07:22:47;;;;;;;9.93;8.38;;;;;;;32.38;51.65;100295.16;5530749;32;33747;-87
2023/07/17 07:25:50;;;;;;;10.18;7.68;;;;;;;32.27;51.24;100303.03;5525441;32;33459;-87
2023/07/17 07:28:52;;;;;;;9.77;8.15;;;;;;;33.01;49.34;100293.34;5534128;32;34242;-88
2023/07/17 07:31:55;;;;;;;12.32;8.32;;;;;;;33.42;48.60;100293.72;5549069;32;33919;-89
2023/07/17 07:34:58;;;;;;;12.18;8.13;;;;;;;33.36;48.13;100289.13;5550192;32;33996;-88
2023/07/17 07:38:01;;;;;;;13.43;9.73;;;;;;;33.06;47.04;100299.00;5549035;32;34412;-87
2023/07/17 07:41:04;;;;;;;12.32;8.27;;;;;;;33.04;48.56;100292.88;5548875;32;33500;-88
2023/07/17 07:44:06;;;;;;;11.45;8.63;;;;;;;33.03;48.70;100284.87;5546501;32;34484;-88
2023/07/17 07:47:13;;;;;;;12.45;8.68;;;;;;;33.23;47.82;100281.88;5534694;32;33813;-88
2023/07/17 07:50:16;;;;;;;9.45;8.63;;;;;;;33.01;48.33;100292.50;5529472;32;34502;-87
2023/07/17 07:53:19;;;;;;;14.60;8.63;;;;;;;33.43;47.42;100289.88;5525621;32;34147;-88
2023/07/17 07:56:21;;;;;;;11.75;8.30;;;;;;;33.39;47.48;100285.94;5550030;32;33714;-88
2023/07/17 07:59:24;;;;;;;10.77;7.90;;;;;;;33.65;45.74;100294.09;5536599;32;33612;-87
2023/07/17 08:02:27;;;;;;;9.90;8.18;;;;;;;34.10;44.27;100299.19;5532629;32;33439;-87
2023/07/17 08:05:30;;;;;;;14.48;8.57;;;;;;;34.57;43.23;100297.59;5544220;32;33981;-86
2023/07/17 08:08:32;;;;;;;12.13;7.65;;;;;;;35.01;42.81;100301.87;5531156;32;33718;-87
2023/07/17 08:11:35;;;;;;;9.10;7.20;;;;;;;35.36;42.69;100298.25;5529695;32;33566;-88
2023/07/17 08:14:38;;;;;;;10.45;7.85;;;;;;;34.86;41.48;100308.75;5530903;32;33713;-90
2023/07/17 08:17:41;;;;;;;8.35;7.55;;;;;;;34.77;40.76;100304.66;5533285;32;34229;-89
2023/07/17 08:20:43;;;;;;;11.60;8.32;;;;;;;35.12;40.94;100298.31;5549184;32;34530;-89
2023/07/17 08:23:46;;;;;;;9.57;7.50;;;;;;;35.69;39.98;100293.97;5550041;32;33479;-90
2023/07/17 10:07:02;;;;;;;10.13;8.45;;;;;;;42.27;28.96;100285.94;2445937;30;20105;-89
2023/07/17 10:10:06;;;;;;;9.98;8.98;;;;;;;41.78;28.21;100287.69;5513826;32;33899;-88
2023/07/17 10:13:10;;;;;;;10.45;9.18;;;;;;;41.29;29.91;100282.69;5526375;32;35348;-89
2023/07/17 10:16:16;;;;;;;9.77;8.82;;;;;;;41.85;29.16;100280.69;5525774;32;34804;-88
2023/07/17 10:19:19;;;;;;;11.45;9.27;;;;;;;41.94;28.78;100268.91;5525877;32;33661;-88
2023/07/17 10:22:27;;;;;;;10.18;9.15;;;;;;;41.45;29.65;100265.88;5525576;32;34705;-88
2023/07/17 10:25:30;;;;;;;12.10;8.80;;;;;;;41.01;30.04;100273.06;5525461;32;34092;-88
2023/07/17 10:28:35;;;;;;;12.93;9.43;;;;;;;41.43;30.28;100263.41;5526245;32;33870;-89
2023/07/17 10:31:48;;;;;;;9.80;8.85;;;;;;;42.61;28.17;100259.97;5527572;32;34769;-88
2023/07/17 10:34:53;;;;;;;10.15;9.07;;;;;;;44.72;25.42;100259.06;5516866;32;33621;-89
2023/07/17 10:38:15;;;;;;;14.13;9.32;;;;;;;45.13;24.72;100257.41;5511652;32;33809;-88
2023/07/17 10:41:18;;;;;;;9.68;8.68;;;;;;;46.50;22.91;100253.81;5511784;32;33459;-88
2023/07/17 10:44:22;;;;;;;10.23;9.23;;;;;;;45.06;23.81;100243.84;5512590;32;34553;-88
2023/07/17 10:47:25;;;;;;;10.60;9.43;;;;;;;42.48;26.41;100233.59;5512856;32;35020;-89
2023/07/17 10:50:27;;;;;;;10.57;9.45;;;;;;;40.96;28.18;100227.47;5513191;32;33555;-89
2023/07/17 10:53:30;;;;;;;11.25;10.02;;;;;;;39.31;31.49;100226.38;5513057;32;33614;-88
2023/07/17 10:56:33;;;;;;;16.33;10.25;;;;;;;39.12;32.26;100222.44;5511459;32;33713;-87
2023/07/17 10:59:36;;;;;;;10.80;9.80;;;;;;;38.96;31.41;100223.19;5512294;32;33754;-89
2023/07/17 11:02:40;;;;;;;13.10;10.55;;;;;;;39.20;34.60;100217.22;5512717;32;33749;-88
2023/07/17 11:05:44;;;;;;;11.90;10.52;;;;;;;39.55;30.86;100214.00;5512346;32;33917;-88
2023/07/17 11:08:52;;;;;;;12.27;10.77;;;;;;;39.04;32.72;100210.78;5511608;32;34464;-89
2023/07/17 11:11:55;;;;;;;15.23;9.60;;;;;;;40.07;31.44;100202.91;5511551;32;33786;-89
2023/07/17 11:14:57;;;;;;;11.93;10.18;;;;;;;41.35;29.58;100209.19;5511039;32;34198;-89
2023/07/17 11:18:02;;;;;;;11.82;10.60;;;;;;;40.65;29.09;100205.31;5511510;32;33638;-88
2023/07/17 11:21:08;;;;;;;12.23;10.00;;;;;;;39.83;31.47;100204.28;5511193;32;33575;-89
2023/07/17 11:24:11;;;;;;;12.82;10.10;;;;;;;40.49;29.96;100198.12;5510789;32;33590;-88
2023/07/17 11:27:14;;;;;;;11.02;9.93;;;;;;;38.93;32.35;100186.88;5514828;32;34019;-88
2023/07/17 11:30:28;;;;;;;10.85;9.88;;;;;;;38.42;33.48;100188.28;5520305;32;35151;-92
2023/07/17 11:33:30;;;;;;;13.38;9.88;;;;;;;38.15;34.38;100178.12;5514619;32;34829;-88
2023/07/17 11:36:44;;;;;;;10.73;9.65;;;;;;;37.96;34.66;100175.75;5510560;32;33778;-88
2023/07/17 11:39:52;;;;;;;11.48;9.90;;;;;;;38.09;34.78;100171.72;5510420;32;33611;-89
2023/07/17 11:42:56;;;;;;;10.88;9.93;;;;;;;38.11;33.95;100161.22;5511125;32;34725;-88
2023/07/17 11:46:02;;;;;;;11.77;9.55;;;;;;;38.50;33.36;100151.75;5510718;32;33867;-88
2023/07/17 11:49:09;;;;;;;10.30;9.02;;;;;;;39.15;32.52;100147.88;5511505;32;33981;-88
2023/07/17 11:52:19;;;;;;;10.23;9.13;;;;;;;39.12;32.80;100147.59;5511191;32;33824;-88
2023/07/17 11:55:33;;;;;;;12.90;9.63;;;;;;;39.13;32.35;100141.78;5510746;32;33731;-88
2023/07/17 11:58:36;;;;;;;10.43;9.45;;;;;;;38.92;31.71;100144.44;5510372;32;34427;-87
2023/07/17 12:01:43;;;;;;;10.23;9.05;;;;;;;38.92;32.89;100138.09;5510373;32;33515;-88
2023/07/17 12:04:46;;;;;;;10.60;9.50;;;;;;;39.10;32.11;100145.06;5511602;32;33694;-88
2023/07/17 12:07:49;;;;;;;10.35;9.45;;;;;;;38.98;32.45;100130.59;5510931;32;33745;-88
2023/07/17 12:10:52;;;;;;;11.60;9.90;;;;;;;39.36;31.62;100134.88;5513331;32;34171;-88
2023/07/17 12:13:54;;;;;;;10.95;9.90;;;;;;;37.56;33.54;100139.16;5510330;32;33664;-86
2023/07/17 12:16:57;;;;;;;13.75;9.23;;;;;;;36.83;35.81;100129.28;5510480;32;34001;-88
2023/07/17 12:19:59;;;;;;;10.48;9.38;;;;;;;37.13;34.80;100127.12;5509621;32;33805;-89
2023/07/17 12:23:03;;;;;;;10.82;9.70;;;;;;;36.51;36.11;100124.44;5509698;32;34002;-88
2023/07/17 12:26:05;;;;;;;11.10;10.00;;;;;;;36.66;36.00;100126.59;5511688;32;34505;-86
2023/07/17 12:29:08;;;;;;;10.30;9.30;;;;;;;36.87;35.62;100124.06;5510683;32;34049;-88
2023/07/17 12:32:11;;;;;;;10.70;9.68;;;;;;;36.99;35.73;100113.69;5510941;32;34507;-87
2023/07/17 12:35:14;;;;;;;11.50;9.73;;;;;;;37.49;34.68;100116.41;5510185;32;33810;-86
2023/07/17 12:38:16;;;;;;;10.65;9.43;;;;;;;37.61;34.46;100100.50;5511101;32;34554;-85
2023/07/17 12:41:19;;;;;;;12.35;9.88;;;;;;;37.65;35.21;100103.56;5510326;32;34108;-88
2023/07/17 12:44:23;;;;;;;9.73;8.82;;;;;;;38.05;34.01;100106.88;5514009;32;34150;-86
2023/07/17 12:47:25;;;;;;;11.18;9.73;;;;;;;38.28;33.05;100105.69;5525195;32;34171;-85
2023/07/17 12:50:28;;;;;;;10.73;9.70;;;;;;;37.99;33.25;100100.50;5522572;32;33933;-85
2023/07/17 12:53:32;;;;;;;10.73;9.10;;;;;;;38.01;33.65;100091.94;5511915;32;33667;-85
2023/07/17 12:56:35;;;;;;;9.95;9.02;;;;;;;37.89;34.80;100092.97;5512695;32;34112;-86
2023/07/17 12:59:38;;;;;;;10.98;8.35;;;;;;;38.03;33.64;100084.19;5514752;32;33911;-85
2023/07/17 13:02:41;;;;;;;8.50;7.62;;;;;;;38.00;32.71;100079.19;5514636;32;34054;-86
2023/07/17 13:05:43;;;;;;;8.48;7.50;;;;;;;37.86;32.04;100084.34;5514825;32;33990;-86
2023/07/17 13:08:46;;;;;;;11.88;7.65;;;;;;;37.33;32.97;100087.78;5511867;32;34521;-87
2023/07/17 13:11:49;;;;;;;9.93;7.50;;;;;;;37.15;33.31;100078.78;5512397;32;33992;-87
2023/07/17 13:14:52;;;;;;;11.23;7.00;;;;;;;36.37;34.62;100074.28;5511748;32;33823;-87
2023/07/17 13:17:54;;;;;;;8.13;7.43;;;;;;;36.41;33.52;100064.37;5511962;32;33823;-91
2023/07/17 13:20:57;;;;;;;8.43;7.28;;;;;;;36.26;34.19;100063.09;5511513;32;34100;-91
2023/07/17 13:24:00;;;;;;;8.45;7.65;;;;;;;36.17;35.17;100063.78;5511302;32;33582;-91
2023/07/17 13:27:03;;;;;;;12.98;7.53;;;;;;;35.82;36.14;100063.00;5511356;32;34107;-91
2023/07/17 13:30:07;;;;;;;8.80;8.00;;;;;;;36.29;35.81;100061.75;5511405;32;34289;-87
2023/07/17 13:33:10;;;;;;;11.50;7.65;;;;;;;36.25;36.60;100064.19;5511081;32;33462;-87
2023/07/17 13:36:13;;;;;;;9.10;7.85;;;;;;;36.20;37.12;100063.28;5511709;32;34374;-88
2023/07/17 13:39:16;;;;;;;14.80;8.27;;;;;;;35.58;38.69;100069.50;5511745;32;34154;-88
2023/07/17 13:42:18;;;;;;;12.18;8.43;;;;;;;35.23;39.96;100078.84;5511787;32;35253;-88
2023/07/17 13:45:21;;;;;;;13.95;8.75;;;;;;;34.85;41.34;100083.94;5511201;32;33657;-88
2023/07/17 13:48:24;;;;;;;10.20;8.50;;;;;;;35.05;40.76;100094.47;5510875;32;33587;-88
2023/07/17 13:51:28;;;;;;;9.32;8.30;;;;;;;34.71;41.78;100099.91;5511119;32;33929;-88
2023/07/17 13:54:30;;;;;;;11.70;8.25;;;;;;;34.96;41.16;100090.47;5511204;32;33867;-88
2023/07/17 13:57:33;;;;;;;14.07;8.77;;;;;;;34.48;43.52;100103.53;5511176;32;33835;-88
2023/07/17 14:00:36;;;;;;;17.12;8.63;;;;;;;34.06;44.22;100099.88;5511081;32;33520;-87
2023/07/17 14:03:39;;;;;;;11.10;8.48;;;;;;;34.19;45.33;100092.44;5511047;32;34547;-87
2023/07/17 14:06:41;;;;;;;9.63;8.68;;;;;;;33.91;46.58;100091.22;5510792;32;34546;-87
2023/07/17 14:09:44;;;;;;;11.35;8.52;;;;;;;34.17;45.35;100078.09;5511125;32;33967;-87
2023/07/17 14:12:47;;;;;;;11.82;8.38;;;;;;;34.30;45.64;100091.59;5511422;32;34491;-86
2023/07/17 14:15:50;;;;;;;11.90;8.10;;;;;;;34.27;46.43;100112.19;5511386;32;34341;-87
2023/07/17 14:18:53;;;;;;;11.82;8.63;;;;;;;33.83;48.86;100122.69;5511037;32;34367;-87
2023/07/17 14:21:56;;;;;;;15.73;9.50;;;;;;;32.91;51.76;100141.94;5517312;32;34469;-88
2023/07/17 14:24:59;;;;;;;21.40;9.70;;;;;;;31.89;56.88;100141.28;5512841;32;34071;-87
2023/07/17 14:28:02;;;;;;;13.27;10.40;;;;;;;32.09;56.90;100141.97;5510881;32;33391;-88
2023/07/17 14:31:05;;;;;;;18.50;10.55;;;;;;;32.01;57.03;100147.72;5510817;32;33926;-88
2023/07/17 14:34:08;;;;;;;13.40;9.80;;;;;;;31.96;58.29;100145.66;5511070;32;34020;-87
2023/07/17 14:37:10;;;;;;;21.52;9.75;;;;;;;32.14;57.45;100141.28;5511372;32;33638;-87
2023/07/17 14:40:13;;;;;;;12.37;9.98;;;;;;;31.76;58.92;100148.53;5511276;32;34161;-88
2023/07/17 14:43:16;;;;;;;13.73;9.80;;;;;;;31.67;60.30;100147.97;5511216;32;33566;-87
2023/07/17 14:46:19;;;;;;;20.00;10.60;;;;;;;31.58;61.79;100138.34;5511759;32;33721;-87
2023/07/17 14:49:22;;;;;;;13.57;10.00;;;;;;;31.46;62.99;100128.09;5511168;32;34013;-87
2023/07/17 14:52:26;;;;;;;10.63;9.70;;;;;;;31.65;63.78;100122.69;5511453;32;33851;-87
2023/07/17 14:55:28;;;;;;;14.23;9.75;;;;;;;31.74;63.05;100121.31;5511934;32;34422;-87
2023/07/17 14:58:31;;;;;;;10.88;9.63;;;;;;;31.75;64.90;100122.19;5521991;32;33868;-87
2023/07/17 15:01:34;;;;;;;14.65;10.40;;;;;;;31.80;64.33;100118.75;5516032;32;33453;-87
2023/07/17 15:04:37;;;;;;;13.15;10.13;;;;;;;31.49;64.89;100128.69;5510770;32;34207;-87
2023/07/17 15:07:39;;;;;;;16.83;10.23;;;;;;;31.73;65.42;100138.03;5519336;32;33552;-88
2023/07/17 15:10:42;;;;;;;10.63;9.52;;;;;;;31.45;63.31;100133.78;5518971;32;33988;-87
2023/07/17 15:13:45;;;;;;;12.18;9.68;;;;;;;31.60;62.81;100130.72;5513948;32;34071;-88
2023/07/17 15:16:48;;;;;;;11.50;9.50;;;;;;;31.46;63.46;100129.97;5515031;32;33883;-87
2023/07/17 15:19:53;;;;;;;10.52;9.55;;;;;;;31.38;64.47;100124.78;5512945;32;34244;-87
2023/07/17 15:22:56;;;;;;;14.50;9.98;;;;;;;31.33;63.61;100119.97;5511171;32;33741;-87
2023/07/17 15:25:58;;;;;;;13.38;9.82;;;;;;;31.63;62.44;100121.22;5511566;32;34124;-88
2023/07/17 15:29:02;;;;;;;10.48;9.32;;;;;;;31.66;60.91;100129.84;5512440;32;35551;-87
